createdAt,value
2023-09-08T00:01:24.431Z,91.82
2023-09-08T00:03:58.225Z,132.82
2023-09-08T00:06:32.475Z,107.95
2023-09-08T00:09:06.445Z,118.45
2023-09-08T00:11:40.075Z,111.25
2023-09-08T00:14:13.715Z,108.75
2023-09-08T00:16:49.683Z,142.35
2023-09-08T00:19:24.484Z,132.27
2023-09-08T00:21:59.688Z,137.40
2023-09-08T00:24:33.274Z,176.80
2023-09-08T00:27:07.158Z,153.35
2023-09-08T00:29:40.844Z,110.88
2023-09-08T00:32:15.941Z,162.95
2023-09-08T00:34:51.168Z,165.43
2023-09-08T00:37:25.368Z,215.63
2023-09-08T00:39:58.965Z,221.52
2023-09-08T00:42:32.881Z,215.30
2023-09-08T00:45:07.307Z,159.10
2023-09-08T00:47:42.566Z,194.48
2023-09-08T00:50:16.525Z,211.10
2023-09-08T00:52:50.306Z,165.82
2023-09-08T00:55:26.256Z,228.23
2023-09-08T00:57:59.949Z,179.82
2023-09-08T01:00:34.208Z,222.40
2023-09-08T01:03:10.252Z,266.05
2023-09-08T01:05:47.959Z,311.42
2023-09-08T01:08:22.144Z,383.50
2023-09-08T01:10:55.911Z,323.98
2023-09-08T01:13:29.532Z,261.50
2023-09-08T01:16:03.828Z,271.33
2023-09-08T01:18:39.865Z,220.52
2023-09-08T01:21:41.403Z,209.90
2023-09-08T01:24:35.493Z,290.35
2023-09-08T01:27:14.286Z,247.30
2023-09-08T01:29:49.787Z,317.27
2023-09-08T01:32:23.745Z,291.23
2023-09-08T01:35:00.297Z,255.32
2023-09-08T01:37:35.832Z,278.38
2023-09-08T01:40:10.162Z,355.67
2023-09-08T01:42:45.223Z,290.58
2023-09-08T01:45:18.922Z,304.35
2023-09-08T01:47:52.608Z,278.15
2023-09-08T01:50:26.536Z,248.32
2023-09-08T01:53:00.171Z,270.70
2023-09-08T01:55:33.717Z,251.82
2023-09-08T01:58:08.752Z,291.92
2023-09-08T02:00:42.532Z,233.60
2023-09-08T02:03:16.584Z,177.25
2023-09-08T02:05:50.234Z,157.68
2023-09-08T02:08:23.913Z,203.20
2023-09-08T02:10:57.486Z,184.95
2023-09-08T02:13:32.618Z,234.70
2023-09-08T02:16:06.520Z,240.35
2023-09-08T02:18:40.130Z,229.68
2023-09-08T02:21:14.106Z,219.57
2023-09-08T02:23:47.769Z,199.45
2023-09-08T02:26:21.388Z,228.65
2023-09-08T02:28:56.357Z,210.50
2023-09-08T02:31:30.344Z,162.52
2023-09-08T02:34:04.559Z,186.50
2023-09-08T02:36:38.913Z,176.68
2023-09-08T02:39:13.097Z,108.93
2023-09-08T02:41:46.808Z,156.23
2023-09-08T02:44:23.145Z,131.18
2023-09-08T02:46:56.974Z,120.72
2023-09-08T02:49:32.874Z,118.45
2023-09-08T02:52:06.834Z,157.85
2023-09-08T02:54:42.014Z,155.07
2023-09-08T02:57:15.915Z,149.38
2023-09-08T02:59:53.642Z,161.95
2023-09-08T03:02:28.092Z,169.20
2023-09-08T03:05:02.761Z,209.48
2023-09-08T03:07:38.689Z,165.45
2023-09-08T03:10:13.347Z,176.90
2023-09-08T03:12:46.909Z,212.90
2023-09-08T03:15:21.984Z,179.82
2023-09-08T03:17:56.531Z,214.18
2023-09-08T03:20:30.568Z,218.60
2023-09-08T03:23:04.145Z,200.52
2023-09-08T03:25:37.698Z,205.45
2023-09-08T03:28:13.910Z,280.08
2023-09-08T03:30:49.035Z,240.85
2023-09-08T03:33:22.871Z,265.95
2023-09-08T03:35:56.761Z,312.05
2023-09-08T03:38:30.656Z,234.43
2023-09-08T03:41:04.522Z,164.23
2023-09-08T03:43:38.158Z,250.55
2023-09-08T03:46:13.343Z,228.90
2023-09-08T03:48:47.092Z,236.98
2023-09-08T03:51:20.792Z,250.85
2023-09-08T03:53:54.637Z,211.85
2023-09-08T03:56:28.243Z,233.85
2023-09-08T03:59:01.972Z,211.15
2023-09-08T04:01:37.223Z,182.90
2023-09-08T04:04:10.955Z,166.18
2023-09-08T04:06:44.597Z,160.48
2023-09-08T04:09:18.214Z,225.10
2023-09-08T04:11:52.302Z,253.00
2023-09-08T04:14:28.279Z,224.63
2023-09-08T04:17:03.406Z,188.77
2023-09-08T04:19:37.332Z,241.18
2023-09-08T04:22:10.915Z,219.88
2023-09-08T04:24:44.499Z,219.10
2023-09-08T04:27:18.090Z,220.20
2023-09-08T04:29:51.791Z,207.32
2023-09-08T04:32:26.958Z,204.15
2023-09-08T04:35:00.748Z,178.98
2023-09-08T04:37:34.361Z,201.55
2023-09-08T04:40:09.491Z,186.38
2023-09-08T04:42:43.517Z,163.65
2023-09-08T04:45:17.329Z,137.55
2023-09-08T04:47:52.399Z,170.18
2023-09-08T04:50:27.387Z,196.80
2023-09-08T04:53:01.014Z,182.82
2023-09-08T04:55:35.061Z,194.20
2023-09-08T04:58:09.074Z,206.55
2023-09-08T05:00:42.780Z,175.23
2023-09-08T05:03:17.985Z,225.07
2023-09-08T05:05:51.676Z,192.52
2023-09-08T05:08:26.280Z,170.80
2023-09-08T05:10:59.963Z,196.40
2023-09-08T05:13:33.659Z,171.93
2023-09-08T05:16:13.610Z,197.48
2023-09-08T05:18:54.497Z,150.38
2023-09-08T05:21:28.700Z,163.40
2023-09-08T05:24:02.577Z,165.18
2023-09-08T05:26:36.685Z,161.88
2023-09-08T05:29:10.378Z,169.05
2023-09-08T05:31:44.242Z,146.52
2023-09-08T05:34:19.446Z,143.40
2023-09-08T05:36:53.212Z,172.38
2023-09-08T05:39:26.873Z,218.63
2023-09-08T05:42:00.729Z,191.13
2023-09-08T05:44:34.337Z,199.95
2023-09-08T05:47:08.177Z,163.48
2023-09-08T05:49:44.102Z,236.10
2023-09-08T05:52:19.413Z,166.80
2023-09-08T05:54:54.191Z,303.38
2023-09-08T05:57:27.951Z,270.27
2023-09-08T06:00:05.106Z,220.65
2023-09-08T06:02:47.233Z,199.93
2023-09-08T06:05:24.759Z,194.00
2023-09-08T06:08:07.100Z,225.43
2023-09-08T06:10:45.557Z,191.07
2023-09-08T06:13:19.411Z,251.25
2023-09-08T06:15:53.241Z,209.80
2023-09-08T06:18:27.972Z,205.45
2023-09-08T06:21:03.711Z,134.82
2023-09-08T06:23:38.345Z,215.05
2023-09-08T06:26:12.532Z,212.93
2023-09-08T06:28:46.614Z,226.65
2023-09-08T06:31:20.284Z,257.50
2023-09-08T06:33:54.412Z,232.60
2023-09-08T06:36:30.657Z,178.55
2023-09-08T06:39:05.113Z,229.43
2023-09-08T06:41:39.900Z,132.32
2023-09-08T06:44:14.822Z,151.95
2023-09-08T06:46:48.714Z,123.07
2023-09-08T06:49:22.595Z,217.95
2023-09-08T06:51:58.027Z,206.80
2023-09-08T06:54:31.656Z,150.07
2023-09-08T06:57:05.751Z,124.53
2023-09-08T06:59:39.487Z,114.07
2023-09-08T07:02:13.190Z,165.93
2023-09-08T07:04:47.529Z,117.85
2023-09-08T07:07:25.368Z,129.90
2023-09-08T07:09:59.053Z,176.52
2023-09-08T07:12:33.023Z,131.27
2023-09-08T07:15:09.751Z,118.45
2023-09-08T07:17:43.945Z,126.22
2023-09-08T07:20:18.963Z,176.25
2023-09-08T07:22:54.419Z,150.32
2023-09-08T07:25:28.355Z,108.18
2023-09-08T07:28:02.097Z,145.40
2023-09-08T07:30:35.952Z,103.63
2023-09-08T07:33:09.969Z,119.00
2023-09-08T07:35:44.693Z,148.85
2023-09-08T07:38:19.865Z,133.85
2023-09-08T07:40:53.514Z,100.80
2023-09-08T07:43:27.171Z,131.68
2023-09-08T07:46:01.031Z,117.85
2023-09-08T07:48:34.967Z,159.68
2023-09-08T07:51:08.871Z,134.05
2023-09-08T07:53:43.859Z,194.13
2023-09-08T07:56:17.565Z,177.63
2023-09-08T07:58:51.224Z,210.00
2023-09-08T08:01:24.810Z,255.95
2023-09-08T08:03:58.415Z,272.67
2023-09-08T08:06:32.164Z,267.85
2023-09-08T08:09:07.792Z,284.95
2023-09-08T08:12:00.027Z,495.30
2023-09-08T08:14:33.630Z,468.38
2023-09-08T08:17:07.244Z,913.80
2023-09-08T08:19:40.825Z,1102.70
2023-09-08T08:22:14.401Z,765.40
2023-09-08T08:24:49.390Z,1607.18
2023-09-08T08:27:23.054Z,1999.90
2023-09-08T08:29:58.816Z,1999.90
2023-09-08T08:32:32.465Z,1999.90
2023-09-08T08:35:06.884Z,1999.90
2023-09-08T08:37:42.617Z,1999.90
2023-09-08T08:40:17.741Z,1999.90
2023-09-08T08:42:58.893Z,1999.90
2023-09-08T08:45:36.588Z,1999.90
2023-09-08T08:48:11.054Z,1999.90
2023-09-08T08:50:46.054Z,1999.90
2023-09-08T08:53:22.668Z,1999.90
2023-09-08T08:56:00.270Z,1999.90
2023-09-08T08:58:34.291Z,1999.90
2023-09-08T09:01:09.668Z,1999.90
2023-09-08T09:03:45.025Z,1999.90
2023-09-08T09:06:19.197Z,1999.90
2023-09-08T09:08:52.931Z,1999.90
2023-09-08T09:11:28.323Z,1999.90
2023-09-08T09:14:02.287Z,1999.90
2023-09-08T09:16:42.052Z,1999.90
2023-09-08T09:19:26.853Z,1999.90
2023-09-08T09:22:02.136Z,1999.90
2023-09-08T09:24:38.509Z,1999.90
2023-09-08T09:27:14.453Z,1999.90
2023-09-08T09:29:49.447Z,1999.90
2023-09-08T09:32:26.540Z,1999.90
2023-09-08T09:35:02.408Z,1999.90
2023-09-08T09:37:37.233Z,1999.90
2023-09-08T09:40:12.995Z,1999.90
2023-09-08T09:42:54.603Z,1999.90
2023-09-08T09:45:28.756Z,1999.90
2023-09-08T09:48:03.653Z,1999.90
2023-09-08T09:50:39.902Z,1999.90
2023-09-08T09:53:15.325Z,1999.90
2023-09-08T09:55:49.404Z,1999.90
2023-09-08T09:58:26.121Z,1999.90
2023-09-08T10:01:01.953Z,1999.90
2023-09-08T10:03:36.332Z,1999.90
2023-09-08T10:06:10.577Z,1999.90
2023-09-08T10:08:48.736Z,1999.90
2023-09-08T10:11:25.248Z,1999.90
2023-09-08T10:14:02.107Z,1999.90
2023-09-08T10:16:39.665Z,1999.90
2023-09-08T10:19:14.251Z,1999.90
2023-09-08T10:21:52.267Z,1999.90
2023-09-08T10:24:29.958Z,1999.90
2023-09-08T10:27:09.015Z,1999.90
2023-09-08T10:29:44.234Z,1999.90
2023-09-08T10:32:19.638Z,1999.90
2023-09-08T10:34:55.388Z,1999.90
2023-09-08T10:37:31.040Z,1999.90
2023-09-08T10:40:24.395Z,1999.90
2023-09-08T10:43:10.947Z,1999.90
2023-09-08T10:45:46.156Z,1999.90
2023-09-08T10:48:22.458Z,1999.90
2023-09-08T10:50:56.363Z,1999.90
2023-09-08T10:53:33.282Z,1999.90
2023-09-08T10:56:17.023Z,1999.90
2023-09-08T10:58:53.736Z,1999.90
2023-09-08T11:01:33.046Z,1999.90
2023-09-08T11:04:18.771Z,1999.90
2023-09-08T11:06:52.902Z,1999.90
2023-09-08T11:09:30.010Z,1999.90
2023-09-08T11:12:10.144Z,1999.90
2023-09-08T11:14:45.534Z,1999.90
2023-09-08T11:17:20.761Z,1999.90
2023-09-08T11:19:54.640Z,1999.90
2023-09-08T11:22:28.904Z,1999.90
2023-09-08T11:25:05.813Z,1999.90
2023-09-08T11:27:40.896Z,1999.90
2023-09-08T11:30:15.428Z,1999.90
2023-09-08T11:32:50.609Z,1999.90
2023-09-08T11:35:24.346Z,1999.90
2023-09-08T11:38:06.027Z,1999.90
2023-09-08T11:40:40.109Z,1999.90
2023-09-08T11:43:14.521Z,1999.90
2023-09-08T11:45:48.452Z,1999.90
2023-09-08T11:48:23.909Z,1999.90
2023-09-08T11:50:57.994Z,1999.90
2023-09-08T11:53:34.769Z,1999.90
2023-09-08T11:56:09.822Z,1999.90
2023-09-08T11:58:44.670Z,1999.90
2023-09-08T12:01:19.118Z,1999.90
2023-09-08T12:03:59.200Z,1999.90
2023-09-08T12:06:33.124Z,1999.90
2023-09-08T12:09:08.139Z,1999.90
2023-09-08T12:11:43.966Z,1999.90
2023-09-08T12:14:18.489Z,1999.90
2023-09-08T12:17:08.716Z,1999.90
2023-09-08T12:19:44.448Z,1999.90
2023-09-08T12:22:23.526Z,1999.90
2023-09-08T12:25:03.313Z,1999.90
2023-09-08T12:27:39.568Z,1999.90
2023-09-08T12:30:19.874Z,1999.90
2023-09-08T12:32:54.319Z,1999.90
2023-09-08T12:35:32.723Z,1999.90
2023-09-08T12:38:08.877Z,1999.90
2023-09-08T12:40:42.938Z,1999.90
2023-09-08T12:43:27.855Z,1999.90
2023-09-08T12:46:01.958Z,1999.90
2023-09-08T12:48:35.985Z,1999.90
2023-09-08T12:51:11.232Z,1999.90
2023-09-08T12:53:45.101Z,1999.90
2023-09-08T12:56:21.818Z,1999.90
2023-09-08T12:58:55.433Z,1999.90
2023-09-08T13:01:30.674Z,1999.90
2023-09-08T13:04:04.863Z,1999.90
2023-09-08T13:06:39.917Z,1999.90
2023-09-08T13:09:13.835Z,1999.90
2023-09-08T13:11:47.473Z,1999.90
2023-09-08T13:14:21.127Z,1999.90
2023-09-08T13:16:56.773Z,1999.90
2023-09-08T13:19:30.534Z,1999.90
2023-09-08T13:22:05.940Z,1999.90
2023-09-08T13:24:40.284Z,1999.90
2023-09-08T13:27:13.899Z,1999.90
2023-09-08T13:29:47.461Z,1999.90
2023-09-08T13:32:21.178Z,1999.90
2023-09-08T13:34:54.872Z,1999.90
2023-09-08T13:37:30.539Z,1999.90
2023-09-08T13:40:05.837Z,1999.90
2023-09-08T13:42:39.674Z,1999.90
2023-09-08T13:45:13.727Z,1999.90
2023-09-08T13:47:48.022Z,1999.90
2023-09-08T13:50:23.561Z,1999.90
2023-09-08T13:53:00.329Z,1999.90
2023-09-08T13:55:38.291Z,1999.90
2023-09-08T13:58:13.245Z,1999.90
2023-09-08T14:00:53.460Z,1999.90
2023-09-08T14:03:30.610Z,1999.90
2023-09-08T14:06:11.787Z,1999.90
2023-09-08T14:11:34.954Z,1999.90
2023-09-08T14:14:17.774Z,1999.90
2023-09-08T14:16:51.546Z,1999.90
2023-09-08T14:19:25.379Z,1999.90
2023-09-08T14:21:58.943Z,1999.90
2023-09-08T14:24:33.971Z,1999.90
2023-09-08T14:27:07.781Z,1999.90
2023-09-08T14:29:41.490Z,1999.90
2023-09-08T14:32:15.257Z,1999.90
2023-09-08T14:34:48.882Z,1999.90
2023-09-08T14:37:22.510Z,1999.90
2023-09-08T14:39:57.488Z,1999.90
2023-09-08T14:42:31.332Z,1999.90
2023-09-08T14:45:05.412Z,1999.90
2023-09-08T14:47:39.094Z,1999.90
2023-09-08T14:50:15.098Z,1999.90
2023-09-08T14:52:48.753Z,1999.90
2023-09-08T14:55:24.125Z,1999.90
2023-09-08T14:57:57.822Z,1999.90
2023-09-08T15:00:31.544Z,1999.90
2023-09-08T15:03:06.341Z,1999.90
2023-09-08T15:05:43.311Z,1999.90
2023-09-08T15:08:19.010Z,1999.90
2023-09-08T15:11:00.064Z,1999.90
2023-09-08T15:16:33.818Z,1999.90
2023-09-08T15:19:13.355Z,1999.90
2023-09-08T15:21:47.665Z,1999.90
2023-09-08T15:24:24.098Z,1999.90
2023-09-08T15:27:10.921Z,1999.90
2023-09-08T15:29:45.918Z,1999.90
2023-09-08T15:32:19.696Z,1999.90
2023-09-08T15:34:56.113Z,1999.90
2023-09-08T15:37:49.352Z,1999.90
2023-09-08T15:40:34.300Z,1999.90
2023-09-08T15:43:36.997Z,1999.90
2023-09-08T15:49:51.151Z,1999.90
2023-09-08T15:52:30.325Z,1999.90
2023-09-08T15:55:10.148Z,1999.90
2023-09-08T15:57:46.155Z,1999.90
2023-09-08T16:00:26.112Z,1999.90
2023-09-08T16:11:06.947Z,1999.90
2023-09-08T16:13:45.192Z,1999.90
2023-09-08T16:16:37.862Z,1999.90
2023-09-08T16:19:13.244Z,1999.90
2023-09-08T16:21:48.017Z,1999.90
2023-09-08T16:24:22.707Z,1999.90
2023-09-08T16:33:52.123Z,1999.90
2023-09-08T16:36:35.152Z,1999.90
2023-09-08T16:39:13.567Z,1999.90
2023-09-08T16:42:14.280Z,1999.90
2023-09-08T16:45:26.917Z,1999.90
2023-09-08T16:48:02.598Z,1999.90
2023-09-08T16:50:39.337Z,1999.90
2023-09-08T16:53:17.962Z,1999.90
2023-09-08T16:55:56.938Z,1999.90
2023-09-08T16:58:34.439Z,1999.90
2023-09-08T17:01:10.287Z,1999.90
2023-09-08T17:03:47.483Z,1999.90
2023-09-08T17:06:21.836Z,1999.90
2023-09-08T17:08:57.279Z,1999.90
2023-09-08T17:11:31.326Z,1999.90
2023-09-08T17:14:05.529Z,1999.90
2023-09-08T17:16:55.162Z,1999.90
2023-09-08T17:19:29.144Z,1991.93
2023-09-08T17:22:07.678Z,1669.13
2023-09-08T17:24:43.562Z,1743.15
2023-09-08T17:27:17.517Z,1581.75
2023-09-08T17:29:51.407Z,1398.00
2023-09-08T17:32:25.129Z,1603.40
2023-09-08T17:34:59.002Z,1145.93
2023-09-08T17:37:34.107Z,967.60
2023-09-08T17:40:11.224Z,785.55
2023-09-08T17:42:45.126Z,930.08
2023-09-08T17:45:19.014Z,544.20
2023-09-08T17:47:53.029Z,508.73
2023-09-08T17:50:27.054Z,746.67
2023-09-08T17:53:00.893Z,526.00
2023-09-08T17:55:36.631Z,530.08
2023-09-08T17:58:10.361Z,426.98
2023-09-08T18:00:44.179Z,394.67
2023-09-08T18:03:21.410Z,503.30
2023-09-08T18:05:56.861Z,455.55
2023-09-08T18:08:30.729Z,417.70
2023-09-08T18:11:06.002Z,299.00
2023-09-08T18:13:41.040Z,279.40
2023-09-08T18:16:15.102Z,275.02
2023-09-08T18:18:50.592Z,244.48
2023-09-08T18:21:24.600Z,239.48
2023-09-08T18:23:58.298Z,267.10
2023-09-08T18:26:33.450Z,211.73
2023-09-08T18:29:07.268Z,199.40
2023-09-08T18:31:42.080Z,228.48
2023-09-08T18:34:17.995Z,208.00
2023-09-08T18:36:51.852Z,248.77
2023-09-08T18:39:26.629Z,206.88
2023-09-08T18:42:02.144Z,220.52
2023-09-08T18:44:43.545Z,181.00
2023-09-08T18:47:17.682Z,211.70
2023-09-08T18:49:51.643Z,197.85
2023-09-08T18:52:25.821Z,167.95
2023-09-08T18:54:59.650Z,181.75
2023-09-08T18:57:35.085Z,181.18
2023-09-08T19:00:10.802Z,185.00
2023-09-08T19:02:44.859Z,153.68
2023-09-08T19:05:19.005Z,185.18
2023-09-08T19:07:53.079Z,185.93
2023-09-08T19:10:26.899Z,142.13
2023-09-08T19:13:02.505Z,170.45
2023-09-08T19:15:36.841Z,195.07
2023-09-08T19:18:10.802Z,172.23
2023-09-08T19:20:44.795Z,160.77
2023-09-08T19:23:18.522Z,162.27
2023-09-08T19:25:52.689Z,193.05
2023-09-08T19:28:28.004Z,205.73
2023-09-08T19:31:02.242Z,151.57
2023-09-08T19:33:36.727Z,163.73
2023-09-08T19:36:10.682Z,143.75
2023-09-08T19:38:44.793Z,208.90
2023-09-08T19:41:21.026Z,149.18
2023-09-08T19:43:56.311Z,142.82
2023-09-08T19:46:30.132Z,133.63
2023-09-08T19:49:04.264Z,151.02
2023-09-08T19:51:38.354Z,132.85
2023-09-08T19:54:12.092Z,122.13
2023-09-08T19:56:46.195Z,138.85
2023-09-08T19:59:22.637Z,136.25
2023-09-08T20:01:56.298Z,148.20
2023-09-08T20:04:30.062Z,150.38
2023-09-08T20:07:04.416Z,142.50
2023-09-08T20:09:41.300Z,135.65
2023-09-08T20:12:14.933Z,140.70
2023-09-08T20:14:50.139Z,135.35
2023-09-08T20:17:24.043Z,125.43
2023-09-08T20:19:57.832Z,150.63
2023-09-08T20:22:31.746Z,127.20
2023-09-08T20:25:06.746Z,156.68
2023-09-08T20:27:40.485Z,144.95
2023-09-08T20:30:15.846Z,127.25
2023-09-08T20:32:49.536Z,118.60
2023-09-08T20:35:23.141Z,124.35
2023-09-08T20:37:56.777Z,133.52
2023-09-08T20:40:30.565Z,124.38
2023-09-08T20:43:04.223Z,126.00
2023-09-08T20:45:39.490Z,162.65
2023-09-08T20:48:13.823Z,113.40
2023-09-08T20:50:47.442Z,129.45
2023-09-08T20:53:21.047Z,133.05
2023-09-08T20:55:55.418Z,126.75
2023-09-08T20:58:29.040Z,129.20
2023-09-08T21:01:04.405Z,109.28
2023-09-08T21:03:40.318Z,129.73
2023-09-08T21:06:18.702Z,134.23
2023-09-08T21:08:53.617Z,126.13
2023-09-08T21:11:27.334Z,127.53
2023-09-08T21:14:04.485Z,100.78
2023-09-08T21:16:39.594Z,105.82
2023-09-08T21:19:13.358Z,114.45
2023-09-08T21:21:47.378Z,106.85
2023-09-08T21:24:22.793Z,114.03
2023-09-08T21:26:56.401Z,122.28
2023-09-08T21:29:30.060Z,94.68
2023-09-08T21:32:05.378Z,119.00
2023-09-08T21:34:38.958Z,115.97
2023-09-08T21:37:12.607Z,116.18
2023-09-08T21:39:46.307Z,119.32
2023-09-08T21:42:19.985Z,109.63
2023-09-08T21:44:53.965Z,101.78
2023-09-08T21:47:31.603Z,101.57
2023-09-08T21:50:05.809Z,109.20
2023-09-08T21:52:40.014Z,138.65
2023-09-08T21:55:14.094Z,112.70
2023-09-08T21:57:47.988Z,155.75
2023-09-08T22:00:22.435Z,111.32
2023-09-08T22:02:58.006Z,110.63
2023-09-08T22:05:31.776Z,119.55
2023-09-08T22:08:08.017Z,138.82
2023-09-08T22:10:41.710Z,111.47
2023-09-08T22:13:15.411Z,103.47
2023-09-08T22:15:49.451Z,107.35
2023-09-08T22:18:24.702Z,115.13
2023-09-08T22:20:58.311Z,114.35
2023-09-08T22:23:33.455Z,97.22
2023-09-08T22:26:16.482Z,103.53
2023-09-08T22:28:51.114Z,88.68
2023-09-08T22:31:26.300Z,93.78
2023-09-08T22:34:18.573Z,101.18
2023-09-08T22:36:52.199Z,120.05
2023-09-08T22:39:27.034Z,157.68
2023-09-08T22:42:00.656Z,119.07
2023-09-08T22:44:34.337Z,161.38
2023-09-08T22:47:11.498Z,148.95
2023-09-08T22:50:00.522Z,218.90
2023-09-08T22:52:34.154Z,216.63
2023-09-08T22:55:23.388Z,154.75
2023-09-08T22:57:59.043Z,196.48
2023-09-08T23:00:33.123Z,231.07
2023-09-08T23:03:06.922Z,202.23
2023-09-08T23:05:41.959Z,150.07
2023-09-08T23:08:15.546Z,181.90
2023-09-08T23:10:53.011Z,191.85
2023-09-08T23:13:26.635Z,199.23
2023-09-08T23:16:00.480Z,215.88
2023-09-08T23:18:34.134Z,280.98
2023-09-08T23:21:09.413Z,192.82
2023-09-08T23:23:43.050Z,208.70
2023-09-08T23:26:16.636Z,277.95
2023-09-08T23:28:55.950Z,256.63
2023-09-08T23:31:29.872Z,272.67
2023-09-08T23:34:03.634Z,264.30
2023-09-08T23:36:38.757Z,250.80
2023-09-08T23:39:12.490Z,192.30
2023-09-08T23:41:47.399Z,248.25
2023-09-08T23:44:21.657Z,196.63
2023-09-08T23:46:55.738Z,160.65
2023-09-08T23:49:29.628Z,165.15
2023-09-08T23:52:04.896Z,158.60
2023-09-08T23:54:38.686Z,137.07
2023-09-08T23:57:12.460Z,142.95
2023-09-08T23:59:46.310Z,129.02
